Time;durP1;ratioP1;P1;durP2;ratioP2;P2;SDS_P1;SDS_P2;PMS_P1;PMS_P2;Temp;Humidity;BMP_temperature;BMP_pressure;BME280_temperature;BME280_humidity;BME280_pressure;Samples;Min_cycle;Max_cycle;Signal;HPM_P1;HPM_P2
2022/05/04 00:01:17;;;;;;;14.73;2.40;;;9.10;93.60;;;;;;5040409;28;20136;-78
2022/05/04 00:03:43;;;;;;;8.38;2.35;;;9.20;93.90;;;;;;5034187;28;20045;-77
2022/05/04 00:06:09;;;;;;;11.02;2.97;;;9.20;93.80;;;;;;5043635;28;20033;-77
2022/05/04 00:08:35;;;;;;;12.23;2.55;;;9.20;93.60;;;;;;5022200;28;20044;-78
2022/05/04 00:11:02;;;;;;;9.40;2.40;;;9.10;93.50;;;;;;5017815;28;20084;-78
2022/05/04 00:13:28;;;;;;;9.30;2.55;;;9.10;93.50;;;;;;5026497;28;20045;-77
2022/05/04 00:15:54;;;;;;;11.48;2.67;;;9.10;93.80;;;;;;5019398;28;20396;-78
2022/05/04 00:18:20;;;;;;;13.05;2.20;;;9.20;94.10;;;;;;5048832;28;20037;-78
2022/05/04 00:20:46;;;;;;;10.35;2.50;;;9.20;94.00;;;;;;5043487;28;20056;-77
2022/05/04 00:23:11;;;;;;;11.88;3.25;;;9.10;94.10;;;;;;5015686;28;20113;-78
2022/05/04 00:25:38;;;;;;;10.10;2.53;;;9.20;94.10;;;;;;5035397;28;20033;-78
2022/05/04 00:28:06;;;;;;;7.32;1.80;;;9.20;94.00;;;;;;5022593;28;20076;-78
2022/05/04 00:30:32;;;;;;;8.13;2.30;;;9.20;94.10;;;;;;5042912;28;20115;-78
2022/05/04 00:32:59;;;;;;;13.70;2.83;;;9.20;94.10;;;;;;5016863;28;20127;-78
2022/05/04 00:35:24;;;;;;;11.77;2.38;;;9.20;94.10;;;;;;5039274;28;20033;-78
2022/05/04 00:37:50;;;;;;;8.65;2.70;;;9.20;94.10;;;;;;5033773;28;20106;-78
2022/05/04 00:40:16;;;;;;;11.23;2.75;;;9.20;94.30;;;;;;5015334;28;20044;-79
2022/05/04 00:42:41;;;;;;;11.77;2.78;;;9.20;94.60;;;;;;5041281;28;20040;-78
2022/05/04 00:45:07;;;;;;;9.40;2.72;;;9.10;94.90;;;;;;5013953;28;20049;-77
2022/05/04 00:47:33;;;;;;;11.45;2.58;;;9.10;95.30;;;;;;5048377;28;20048;-79
2022/05/04 00:50:04;;;;;;;22.48;2.97;;;9.10;95.80;;;;;;5041329;28;20128;-78
2022/05/04 00:52:31;;;;;;;;;;;9.10;96.10;;;;;;5044022;28;20055;-78
2022/05/04 00:54:56;;;;;;;9.70;2.30;;;9.10;95.90;;;;;;5042059;28;20417;-77
2022/05/04 00:58:54;;;;;;;8.95;2.25;;;9.10;96.20;;;;;;5032775;28;20041;-78
2022/05/04 01:00:09;;;;;;;14.40;2.63;;;9.20;96.20;;;;;;5019286;28;20496;-78
2022/05/04 01:02:38;;;;;;;10.77;3.08;;;9.10;96.10;;;;;;5045809;28;20118;-78
2022/05/04 01:05:04;;;;;;;6.13;1.90;;;9.20;96.30;;;;;;5045542;28;20046;-79
2022/05/04 01:07:30;;;;;;;9.10;3.17;;;9.20;96.40;;;;;;5020913;28;20049;-78
2022/05/04 01:09:55;;;;;;;8.02;2.55;;;9.20;96.60;;;;;;5048978;28;20353;-79
2022/05/04 01:12:23;;;;;;;10.70;2.05;;;9.20;96.30;;;;;;5031788;28;20465;-78
2022/05/04 01:14:49;;;;;;;11.57;2.30;;;9.20;96.20;;;;;;5039841;28;20536;-78
2022/05/04 01:17:15;;;;;;;8.07;1.88;;;9.20;96.10;;;;;;5048976;28;20060;-79
2022/05/04 01:19:40;;;;;;;13.68;2.78;;;9.10;96.00;;;;;;5047342;28;20065;-79
2022/05/04 01:22:06;;;;;;;9.35;2.63;;;9.20;96.10;;;;;;5032541;28;20049;-79
2022/05/04 01:24:32;;;;;;;9.63;2.38;;;9.10;96.10;;;;;;5043199;28;20036;-78
2022/05/04 01:26:57;;;;;;;13.00;2.42;;;9.20;96.10;;;;;;5048164;28;20044;-78
2022/05/04 01:29:23;;;;;;;10.50;2.30;;;9.10;95.90;;;;;;5037282;28;20040;-78
2022/05/04 01:31:48;;;;;;;13.75;2.85;;;9.10;95.90;;;;;;5039731;28;20037;-78
2022/05/04 01:34:14;;;;;;;14.45;2.60;;;9.10;96.10;;;;;;5049265;28;20049;-78
2022/05/04 01:36:40;;;;;;;7.07;2.00;;;9.10;96.20;;;;;;5047831;28;20036;-79
2022/05/04 01:39:05;;;;;;;7.20;2.22;;;9.10;96.20;;;;;;5047791;28;20071;-78
2022/05/04 01:44:15;;;;;;;11.23;2.00;;;9.10;96.20;;;;;;5011558;28;20081;-78
2022/05/04 01:46:41;;;;;;;12.25;3.08;;;9.20;96.00;;;;;;5034704;28;20079;-79
2022/05/04 01:49:09;;;;;;;15.38;2.45;;;9.10;95.80;;;;;;5043057;28;20623;-79
2022/05/04 01:51:38;;;;;;;5.82;2.20;;;9.10;95.80;;;;;;5024088;28;20057;-79
2022/05/04 01:54:04;;;;;;;10.90;2.38;;;9.10;96.10;;;;;;5051847;28;20045;-79
2022/05/04 01:56:29;;;;;;;6.72;2.03;;;9.10;96.10;;;;;;5017724;28;20116;-79
2022/05/04 01:58:55;;;;;;;9.00;2.08;;;9.10;96.20;;;;;;5025189;28;20130;-78
2022/05/04 02:01:20;;;;;;;6.70;2.05;;;9.10;96.10;;;;;;5046565;28;20123;-78
2022/05/04 02:03:46;;;;;;;9.77;2.20;;;9.10;96.20;;;;;;5024091;28;20454;-78
2022/05/04 02:06:12;;;;;;;10.82;2.15;;;9.10;96.30;;;;;;5042944;28;20036;-78
2022/05/04 02:08:38;;;;;;;10.85;2.65;;;9.00;96.40;;;;;;5012729;28;20046;-78
2022/05/04 02:11:04;;;;;;;10.02;2.20;;;9.00;96.70;;;;;;5012025;28;20563;-79
2022/05/04 02:13:29;;;;;;;11.18;2.28;;;9.00;96.70;;;;;;5028807;28;20041;-79
2022/05/04 02:15:55;;;;;;;9.57;2.58;;;9.00;96.60;;;;;;5042175;28;20045;-79
2022/05/04 02:18:21;;;;;;;12.82;2.05;;;9.00;96.50;;;;;;5038484;28;20089;-79
2022/05/04 02:20:46;;;;;;;11.75;2.35;;;9.00;96.50;;;;;;5036454;28;20481;-78
2022/05/04 02:23:12;;;;;;;8.30;2.65;;;9.00;96.60;;;;;;5031262;28;20049;-78
2022/05/04 02:25:40;;;;;;;17.33;2.55;;;9.00;96.50;;;;;;5042337;28;20541;-78
2022/05/04 02:28:06;;;;;;;16.77;2.33;;;9.00;96.50;;;;;;5016889;28;20051;-78
2022/05/04 02:30:31;;;;;;;11.70;2.53;;;8.90;96.30;;;;;;5047346;28;20044;-78
2022/05/04 02:32:57;;;;;;;10.48;2.63;;;8.90;96.10;;;;;;5027981;28;20072;-77
2022/05/04 02:38:07;;;;;;;12.02;1.70;;;8.90;96.10;;;;;;5021298;28;20144;-78
2022/05/04 02:40:32;;;;;;;10.18;2.15;;;8.90;95.90;;;;;;5049373;28;20131;-78
2022/05/04 02:42:58;;;;;;;14.70;2.72;;;8.90;95.90;;;;;;5033622;28;20452;-78
2022/05/04 02:45:24;;;;;;;11.32;1.92;;;8.90;95.90;;;;;;5057091;28;20029;-78
2022/05/04 02:47:49;;;;;;;11.80;1.98;;;8.90;95.90;;;;;;5055869;28;20072;-78
2022/05/04 02:50:15;;;;;;;10.45;2.03;;;8.90;96.00;;;;;;5056067;28;20136;-79
2022/05/04 02:52:41;;;;;;;8.30;2.10;;;8.90;96.00;;;;;;5020179;28;20041;-78
2022/05/04 02:55:07;;;;;;;7.75;2.20;;;8.90;95.90;;;;;;5064481;28;20479;-78
2022/05/04 02:57:35;;;;;;;7.75;2.22;;;8.80;95.70;;;;;;5027772;28;20045;-79
2022/05/04 03:00:04;;;;;;;10.20;1.85;;;8.80;95.60;;;;;;5043142;28;20049;-78
2022/05/04 03:02:29;;;;;;;4.88;1.50;;;8.80;95.70;;;;;;5048600;28;20048;-78
2022/05/04 03:04:57;;;;;;;9.35;1.65;;;8.80;95.60;;;;;;5057575;28;20047;-78
2022/05/04 03:07:23;;;;;;;11.32;1.73;;;9.40;95.60;;;;;;5028642;28;20041;-78
2022/05/04 03:09:49;;;;;;;9.55;1.80;;;8.80;95.20;;;;;;5043741;28;20683;-77
2022/05/04 03:12:18;;;;;;;6.97;1.92;;;8.70;95.00;;;;;;5033907;28;20517;-78
2022/05/04 03:14:46;;;;;;;10.57;2.17;;;8.70;94.90;;;;;;5046872;28;20072;-77
2022/05/04 03:17:15;;;;;;;10.63;2.10;;;8.80;95.20;;;;;;5042458;28;20110;-78
2022/05/04 03:19:41;;;;;;;8.48;1.95;;;8.80;95.10;;;;;;5045479;28;20507;-78
2022/05/04 03:22:06;;;;;;;6.03;1.88;;;8.80;95.10;;;;;;5037873;28;20049;-78
2022/05/04 03:24:32;;;;;;;11.45;2.60;;;8.80;95.40;;;;;;5029086;28;20041;-79
2022/05/04 03:26:58;;;;;;;5.63;1.60;;;8.80;95.30;;;;;;5033346;28;20056;-78
2022/05/04 03:29:25;;;;;;;8.75;1.80;;;8.80;95.20;;;;;;5043282;28;20041;-78
2022/05/04 03:31:51;;;;;;;7.65;2.67;;;8.80;95.20;;;;;;5034260;28;20098;-78
2022/05/04 03:34:16;;;;;;;12.93;2.50;;;8.80;95.60;;;;;;5012418;28;20048;-79
2022/05/04 03:36:42;;;;;;;11.23;2.20;;;8.80;95.60;;;;;;5030507;28;20144;-78
2022/05/04 03:39:08;;;;;;;7.68;1.98;;;8.80;95.70;;;;;;5028463;28;20041;-78
2022/05/04 03:41:34;;;;;;;7.53;1.95;;;8.80;95.90;;;;;;5023523;28;20049;-78
2022/05/04 03:44:01;;;;;;;10.05;1.98;;;8.80;95.90;;;;;;5035629;28;20049;-78
2022/05/04 03:46:28;;;;;;;9.15;2.38;;;8.80;95.90;;;;;;5011449;28;20038;-78
2022/05/04 03:48:56;;;;;;;8.52;2.17;;;8.80;96.10;;;;;;5027456;28;20150;-79
2022/05/04 03:51:22;;;;;;;8.13;1.98;;;8.80;95.90;;;;;;5019283;28;20511;-78
2022/05/04 03:53:49;;;;;;;7.63;2.00;;;8.80;96.00;;;;;;5047958;28;20220;-79
2022/05/04 03:56:18;;;;;;;11.32;2.85;;;8.80;95.80;;;;;;5018457;28;20072;-78
2022/05/04 03:58:44;;;;;;;8.13;2.00;;;8.80;95.60;;;;;;5040499;28;20465;-78
2022/05/04 04:01:17;;;;;;;11.02;2.33;;;8.70;95.70;;;;;;5037559;28;20115;-77
2022/05/04 04:03:43;;;;;;;5.03;1.70;;;8.70;95.80;;;;;;5034184;28;20080;-78
2022/05/04 04:06:08;;;;;;;8.98;1.98;;;8.70;95.80;;;;;;5029366;28;20456;-78
2022/05/04 04:08:34;;;;;;;10.48;2.53;;;8.60;95.70;;;;;;5026482;28;20547;-78
2022/05/04 04:11:03;;;;;;;8.98;2.00;;;8.70;95.80;;;;;;5019212;28;20054;-78
2022/05/04 04:13:29;;;;;;;6.90;2.22;;;8.60;95.90;;;;;;5032265;28;20049;-78
2022/05/04 04:15:55;;;;;;;5.47;2.00;;;8.60;96.00;;;;;;5046050;28;20067;-78
2022/05/04 04:18:23;;;;;;;10.73;1.85;;;8.70;96.00;;;;;;5016536;28;20087;-78
2022/05/04 04:23:33;;;;;;;13.77;2.90;;;8.70;96.30;;;;;;5051027;28;20044;-79
2022/05/04 04:25:59;;;;;;;9.77;2.13;;;8.70;96.30;;;;;;5027661;28;20045;-79
2022/05/04 04:28:25;;;;;;;10.38;2.00;;;8.70;96.10;;;;;;5023385;28;20151;-79
2022/05/04 04:30:51;;;;;;;11.57;2.05;;;8.70;96.00;;;;;;5043382;28;20127;-78
2022/05/04 04:33:17;;;;;;;9.05;1.98;;;8.70;96.00;;;;;;5027793;28;20043;-79
2022/05/04 04:35:43;;;;;;;14.23;2.83;;;8.70;96.30;;;;;;5025941;28;20069;-79
2022/05/04 04:38:09;;;;;;;9.18;2.20;;;8.70;96.50;;;;;;5024385;28;20423;-79
2022/05/04 04:40:34;;;;;;;14.40;2.30;;;8.70;96.40;;;;;;5024506;28;20045;-77
2022/05/04 04:43:00;;;;;;;12.68;2.33;;;8.80;96.30;;;;;;5034848;28;20045;-79
2022/05/04 04:45:27;;;;;;;8.00;2.10;;;8.80;96.10;;;;;;5017684;28;20049;-80
2022/05/04 04:47:53;;;;;;;7.00;1.70;;;8.80;96.10;;;;;;5039050;28;20045;-79
2022/05/04 04:50:19;;;;;;;10.07;2.40;;;8.80;96.20;;;;;;5043129;28;20045;-79
2022/05/04 04:52:44;;;;;;;14.73;2.22;;;8.80;96.20;;;;;;5042480;28;20044;-80
2022/05/04 04:55:11;;;;;;;4.50;1.45;;;8.90;96.20;;;;;;5023659;28;20094;-80
2022/05/04 04:57:37;;;;;;;9.30;2.22;;;8.90;96.30;;;;;;5016058;28;20500;-79
2022/05/04 05:00:04;;;;;;;9.95;1.70;;;8.90;96.30;;;;;;5037825;28;20144;-78
2022/05/04 05:02:30;;;;;;;7.60;1.85;;;8.90;96.00;;;;;;5031208;28;20565;-80
2022/05/04 05:04:56;;;;;;;7.25;1.95;;;8.90;95.90;;;;;;5020328;28;20204;-80
2022/05/04 05:07:21;;;;;;;8.77;1.98;;;8.90;96.00;;;;;;5035256;28;20053;-80
2022/05/04 05:09:47;;;;;;;9.57;1.75;;;8.90;96.00;;;;;;5031819;28;20485;-79
2022/05/04 05:12:13;;;;;;;13.23;3.20;;;8.90;96.00;;;;;;5020666;28;20049;-79
2022/05/04 05:17:22;;;;;;;6.88;1.52;;;8.90;95.80;;;;;;5013390;28;20084;-80
2022/05/04 05:19:48;;;;;;;9.48;2.13;;;8.80;95.90;;;;;;5039770;28;20133;-80
2022/05/04 05:22:14;;;;;;;9.02;2.22;;;8.80;96.00;;;;;;5039034;28;20112;-79
2022/05/04 05:24:39;;;;;;;10.88;2.03;;;8.90;96.00;;;;;;5066248;28;20522;-79
2022/05/04 05:27:08;;;;;;;7.45;2.08;;;8.90;96.00;;;;;;5040820;28;20531;-80
2022/05/04 05:29:33;;;;;;;10.05;2.83;;;8.90;96.20;;;;;;5049310;28;20036;-79
2022/05/04 05:31:59;;;;;;;5.43;2.08;;;8.80;96.00;;;;;;5027225;28;20052;-80
2022/05/04 05:34:26;;;;;;;9.70;1.70;;;8.90;96.00;;;;;;5040577;28;20101;-79
2022/05/04 05:36:52;;;;;;;8.05;2.40;;;8.80;95.80;;;;;;5041835;28;20523;-80
2022/05/04 05:39:18;;;;;;;11.00;1.88;;;8.80;95.70;;;;;;5031965;28;20041;-80
2022/05/04 05:41:43;;;;;;;12.50;2.80;;;8.80;95.60;;;;;;5040473;28;20042;-80
2022/05/04 05:44:09;;;;;;;10.63;2.40;;;8.80;95.70;;;;;;5018320;28;20049;-81
2022/05/04 05:46:34;;;;;;;9.32;2.20;;;8.80;95.70;;;;;;5038939;28;20116;-79
2022/05/04 05:49:00;;;;;;;7.05;1.90;;;8.90;95.80;;;;;;5043726;28;20045;-80
2022/05/04 05:51:26;;;;;;;10.40;2.30;;;8.90;95.70;;;;;;5044278;28;20113;-80
2022/05/04 05:53:51;;;;;;;12.38;2.25;;;8.90;95.70;;;;;;5048935;28;20396;-80
2022/05/04 05:56:17;;;;;;;6.85;1.60;;;9.00;95.90;;;;;;5048400;28;20040;-80
2022/05/04 05:58:42;;;;;;;10.52;2.25;;;9.00;95.40;;;;;;5031793;28;20381;-79
2022/05/04 06:01:08;;;;;;;7.50;2.08;;;9.00;95.50;;;;;;5019786;28;20114;-79
2022/05/04 06:03:33;;;;;;;8.93;2.33;;;9.00;95.60;;;;;;5037527;28;20393;-80
2022/05/04 06:05:59;;;;;;;13.57;2.63;;;9.10;95.70;;;;;;5043264;28;20051;-80
2022/05/04 06:08:25;;;;;;;8.55;2.35;;;9.10;95.40;;;;;;5045646;28;20072;-81
2022/05/04 06:10:50;;;;;;;14.93;2.45;;;9.10;95.10;;;;;;5046999;28;20459;-80
2022/05/04 06:13:16;;;;;;;15.40;2.70;;;9.20;95.10;;;;;;5030165;28;20049;-80
2022/05/04 06:15:47;;;;;;;10.02;1.85;;;9.20;95.20;;;;;;5046871;28;20041;-79
2022/05/04 06:18:13;;;;;;;6.90;1.75;;;9.20;95.30;;;;;;5032111;28;20121;-80
2022/05/04 06:20:39;;;;;;;10.85;2.38;;;9.30;95.30;;;;;;5042617;28;20060;-80
2022/05/04 06:23:05;;;;;;;11.13;2.35;;;9.30;94.70;;;;;;5029110;28;20060;-79
2022/05/04 06:25:31;;;;;;;5.93;1.33;;;9.30;94.70;;;;;;5044065;28;20123;-80
2022/05/04 06:27:56;;;;;;;12.93;2.45;;;9.30;94.50;;;;;;5023341;28;20125;-79
2022/05/04 06:35:50;;;;;;;10.32;2.17;;;9.40;94.70;;;;;;5042810;28;20048;-79
2022/05/04 06:38:16;;;;;;;7.30;1.75;;;9.40;94.60;;;;;;5044248;28;20613;-80
2022/05/04 06:40:42;;;;;;;5.55;1.77;;;9.50;94.30;;;;;;5028147;28;20047;-78
2022/05/04 06:43:08;;;;;;;12.32;2.63;;;9.50;94.10;;;;;;5012238;28;20137;-78
2022/05/04 06:45:34;;;;;;;9.23;2.00;;;9.50;94.10;;;;;;5025766;28;20045;-79
2022/05/04 06:47:59;;;;;;;12.07;2.13;;;10.00;94.20;;;;;;5045160;28;20044;-78
2022/05/04 06:50:25;;;;;;;11.60;2.45;;;9.60;93.80;;;;;;5029213;28;20567;-78
2022/05/04 06:52:51;;;;;;;10.48;1.50;;;9.60;93.70;;;;;;5023076;28;20048;-79
2022/05/04 06:55:20;;;;;;;9.02;1.92;;;9.70;93.70;;;;;;5044776;28;20396;-79
2022/05/04 06:57:45;;;;;;;15.25;2.00;;;9.70;93.90;;;;;;5038590;28;20044;-77
2022/05/04 07:00:11;;;;;;;11.32;2.17;;;9.70;94.00;;;;;;5045058;28;20045;-80
2022/05/04 07:02:37;;;;;;;10.85;2.03;;;9.80;94.00;;;;;;5027895;28;20057;-81
2022/05/04 07:05:04;;;;;;;7.57;2.03;;;9.80;93.90;;;;;;5043734;28;20073;-79
2022/05/04 07:07:30;;;;;;;8.48;1.73;;;9.90;93.90;;;;;;5038407;28;20049;-79
2022/05/04 07:09:56;;;;;;;14.13;1.77;;;9.90;93.70;;;;;;5040421;28;20045;-77
2022/05/04 07:12:21;;;;;;;7.75;1.50;;;10.00;93.90;;;;;;5042564;28;20048;-80
2022/05/04 07:14:47;;;;;;;7.93;2.00;;;10.00;93.60;;;;;;5035336;28;20033;-79
2022/05/04 07:17:13;;;;;;;8.85;2.53;;;10.10;93.10;;;;;;5029720;28;20198;-79
2022/05/04 07:19:39;;;;;;;9.77;2.75;;;10.10;92.90;;;;;;5030246;28;20041;-78
2022/05/04 07:22:05;;;;;;;10.32;1.65;;;10.10;92.80;;;;;;5028646;28;20527;-79
2022/05/04 07:24:30;;;;;;;10.27;2.53;;;10.10;92.70;;;;;;5030698;28;20041;-79
2022/05/04 07:26:56;;;;;;;11.88;1.77;;;10.10;92.50;;;;;;5031806;28;20100;-79
2022/05/04 07:29:21;;;;;;;11.18;1.80;;;10.10;92.20;;;;;;5051462;28;20037;-80
2022/05/04 07:31:47;;;;;;;5.65;2.45;;;10.10;92.10;;;;;;5041890;28;20140;-79
2022/05/04 07:34:14;;;;;;;9.32;1.85;;;10.10;92.00;;;;;;5027920;28;20045;-79
2022/05/04 07:36:40;;;;;;;6.32;1.60;;;10.10;92.10;;;;;;5043192;28;20052;-80
2022/05/04 07:39:06;;;;;;;8.60;1.77;;;10.20;92.00;;;;;;5038333;28;20688;-79
2022/05/04 07:44:16;;;;;;;8.23;1.80;;;10.20;91.70;;;;;;5041215;28;20049;-81
2022/05/04 07:46:43;;;;;;;14.60;1.98;;;10.30;91.60;;;;;;5046473;28;20048;-79
2022/05/04 07:49:09;;;;;;;9.82;2.08;;;10.30;91.80;;;;;;5018994;28;20049;-79
2022/05/04 07:51:34;;;;;;;10.00;2.10;;;10.30;91.70;;;;;;5034473;28;20049;-80
2022/05/04 07:54:00;;;;;;;9.15;1.80;;;10.40;91.80;;;;;;5027544;28;20041;-79
2022/05/04 07:56:25;;;;;;;7.05;1.80;;;10.40;91.40;;;;;;5045258;28;20052;-79
2022/05/04 07:58:51;;;;;;;5.32;1.85;;;10.50;91.40;;;;;;5040916;28;20043;-81
2022/05/04 08:04:16;;;;;;;7.88;1.63;;;10.50;91.20;;;;;;5041045;28;20115;-78
2022/05/04 08:06:42;;;;;;;9.87;1.80;;;10.50;91.30;;;;;;5044671;28;20128;-78
2022/05/04 08:09:07;;;;;;;11.43;2.13;;;10.50;91.50;;;;;;5042344;28;20255;-78
2022/05/04 08:11:33;;;;;;;9.82;1.90;;;10.60;91.50;;;;;;5035644;28;20041;-78
2022/05/04 08:13:59;;;;;;;12.98;1.77;;;10.60;91.60;;;;;;5057436;28;20068;-78
2022/05/04 08:16:24;;;;;;;7.10;1.50;;;10.70;91.50;;;;;;5044609;28;20678;-79
2022/05/04 08:18:50;;;;;;;7.75;1.83;;;10.80;91.40;;;;;;5029027;28;20065;-79
2022/05/04 08:21:16;;;;;;;8.85;1.77;;;10.70;90.90;;;;;;5038394;28;20091;-79
2022/05/04 08:23:41;;;;;;;8.60;1.92;;;10.80;90.80;;;;;;5029832;28;20060;-79
2022/05/04 08:26:07;;;;;;;6.28;1.70;;;10.80;90.40;;;;;;5022991;28;20045;-79
2022/05/04 08:28:32;;;;;;;8.80;1.88;;;10.90;90.70;;;;;;5011658;28;20056;-79
2022/05/04 08:30:58;;;;;;;25.70;2.63;;;10.80;90.60;;;;;;5041325;28;20032;-84
2022/05/04 08:33:24;;;;;;;11.80;2.58;;;10.80;90.70;;;;;;5035461;28;20053;-80
2022/05/04 08:35:50;;;;;;;8.50;1.73;;;10.90;90.80;;;;;;5043486;28;20098;-79
2022/05/04 08:38:16;;;;;;;7.47;1.60;;;10.90;90.80;;;;;;5049746;28;20045;-80
2022/05/04 08:40:42;;;;;;;8.27;2.17;;;11.00;90.60;;;;;;5045617;28;20029;-79
2022/05/04 08:43:11;;;;;;;5.05;1.73;;;11.00;90.50;;;;;;5030439;28;20389;-81
2022/05/04 08:45:39;;;;;;;8.52;1.80;;;10.90;90.20;;;;;;5051270;28;20045;-81
2022/05/04 08:48:07;;;;;;;8.68;2.03;;;10.90;90.00;;;;;;5044164;28;20626;-82
2022/05/04 08:50:34;;;;;;;9.63;2.15;;;11.00;89.90;;;;;;5036603;28;20158;-82
2022/05/04 08:53:01;;;;;;;9.18;3.10;;;10.90;89.30;;;;;;5044517;28;20092;-80
2022/05/04 08:55:28;;;;;;;7.93;1.95;;;10.90;89.10;;;;;;5052270;28;20052;-80
2022/05/04 08:57:54;;;;;;;9.95;2.83;;;10.90;88.70;;;;;;5037882;28;20326;-80
2022/05/04 09:00:21;;;;;;;5.75;2.08;;;10.90;89.40;;;;;;5018935;28;20044;-80
2022/05/04 09:02:47;;;;;;;14.52;2.00;;;11.00;89.60;;;;;;5033976;28;20136;-79
2022/05/04 09:05:24;;;;;;;8.65;2.00;;;11.00;89.40;;;;;;5034674;28;20041;-81
2022/05/04 09:07:52;;;;;;;13.23;2.40;;;11.10;88.70;;;;;;5032788;28;20049;-78
2022/05/04 09:10:23;;;;;;;8.73;1.88;;;11.00;88.40;;;;;;5038456;28;20124;-78
2022/05/04 09:12:51;;;;;;;12.18;2.20;;;11.00;88.90;;;;;;5034253;28;20144;-79
2022/05/04 09:15:21;;;;;;;9.10;1.77;;;11.00;88.90;;;;;;5031245;28;20060;-78
2022/05/04 09:18:01;;;;;;;8.35;2.10;;;11.10;89.20;;;;;;5037283;28;20052;-78
2022/05/04 09:20:45;;;;;;;8.10;2.20;;;11.20;88.90;;;;;;5035954;28;20084;-80
2022/05/04 09:23:18;;;;;;;6.70;1.67;;;11.40;88.40;;;;;;5042046;28;20607;-79
2022/05/04 09:25:47;;;;;;;8.75;2.53;;;11.30;88.10;;;;;;5038105;28;20049;-82
2022/05/04 09:28:14;;;;;;;6.65;1.98;;;11.30;88.50;;;;;;5023042;28;20126;-75
2022/05/04 09:31:06;;;;;;;9.02;2.33;;;11.40;88.50;;;;;;5025380;28;20084;-78
2022/05/04 09:33:38;;;;;;;18.38;2.65;;;11.50;88.50;;;;;;5032788;28;20134;-78
2022/05/04 09:36:04;;;;;;;19.98;3.10;;;11.60;88.70;;;;;;5039664;28;20041;-79
2022/05/04 09:46:54;;;;;;;9.05;2.00;;;11.90;88.40;;;;;;5012785;28;20045;-79
2022/05/04 09:49:21;;;;;;;7.60;1.75;;;12.00;88.20;;;;;;5036358;28;20096;-79
2022/05/04 09:51:53;;;;;;;9.82;1.85;;;11.90;87.80;;;;;;5038689;28;20059;-78
2022/05/04 09:54:21;;;;;;;5.72;1.95;;;12.00;87.00;;;;;;5038276;28;20097;-79
2022/05/04 09:56:48;;;;;;;9.68;1.95;;;11.90;85.70;;;;;;5031069;28;20040;-78
2022/05/04 09:59:15;;;;;;;7.63;2.53;;;11.90;85.90;;;;;;5050792;28;20094;-81
2022/05/04 10:01:42;;;;;;;9.50;2.38;;;12.00;86.60;;;;;;5016052;28;20056;-81
2022/05/04 10:04:09;;;;;;;7.13;1.88;;;11.90;86.20;;;;;;5022736;28;20088;-81
2022/05/04 10:06:35;;;;;;;7.05;1.85;;;12.00;85.70;;;;;;5021033;28;20049;-78
2022/05/04 10:09:06;;;;;;;6.95;2.28;;;11.90;85.20;;;;;;5041677;28;20436;-76
2022/05/04 10:11:34;;;;;;;9.48;1.88;;;12.00;85.30;;;;;;5035508;28;20124;-78
2022/05/04 10:14:12;;;;;;;9.40;2.25;;;12.00;85.10;;;;;;5033208;28;20765;-77
2022/05/04 10:17:06;;;;;;;10.13;2.35;;;12.10;83.90;;;;;;5025538;28;20048;-77
2022/05/04 10:19:58;;;;;;;14.45;2.28;;;12.10;85.40;;;;;;5019124;28;20107;-78
2022/05/04 10:22:37;;;;;;;9.00;1.92;;;12.10;85.10;;;;;;5032452;28;20048;-78
2022/05/04 10:25:05;;;;;;;11.10;2.10;;;12.30;85.00;;;;;;5036186;28;20048;-78
2022/05/04 10:27:30;;;;;;;7.30;2.05;;;12.30;84.70;;;;;;5043923;28;20166;-79
2022/05/04 10:32:50;;;;;;;4.50;1.65;;;12.50;84.40;;;;;;5025549;28;20044;-78
2022/05/04 10:35:22;;;;;;;11.15;2.33;;;12.60;84.90;;;;;;5033267;28;20065;-77
2022/05/04 10:37:57;;;;;;;9.27;2.10;;;12.70;85.00;;;;;;5044212;28;20049;-77
2022/05/04 10:40:24;;;;;;;8.65;2.20;;;12.70;84.20;;;;;;5028099;28;20048;-77
2022/05/04 10:42:57;;;;;;;6.97;1.60;;;12.80;85.10;;;;;;5030483;28;20471;-80
2022/05/04 10:45:27;;;;;;;8.55;1.98;;;12.90;83.70;;;;;;5039098;28;20041;-76
2022/05/04 10:48:16;;;;;;;8.50;1.35;;;12.90;83.70;;;;;;5043078;28;20532;-77
2022/05/04 10:50:57;;;;;;;9.70;2.55;;;12.80;83.10;;;;;;5033426;28;20246;-78
2022/05/04 10:53:23;;;;;;;;;;;12.80;81.80;;;;;;5046082;28;20052;-77
2022/05/04 10:56:01;;;;;;;33.20;2.78;;;12.80;82.70;;;;;;5023663;28;20464;-78
2022/05/04 10:58:36;;;;;;;12.23;2.78;;;12.70;83.60;;;;;;5021707;28;20082;-77
2022/05/04 11:01:12;;;;;;;21.63;2.08;;;12.80;83.10;;;;;;5024857;28;20073;-82
2022/05/04 11:03:57;;;;;;;6.18;1.70;;;13.00;83.40;;;;;;5012856;28;20041;-81
2022/05/04 11:06:27;;;;;;;9.32;2.63;;;13.20;83.10;;;;;;5041025;28;20226;-78
2022/05/04 11:08:55;;;;;;;11.13;1.70;;;13.40;83.30;;;;;;5031902;28;20075;-80
2022/05/04 11:11:23;;;;;;;6.13;1.63;;;13.50;82.50;;;;;;5023154;28;20520;-80
2022/05/04 11:13:50;;;;;;;9.63;2.33;;;13.70;81.30;;;;;;5036107;28;20046;-79
2022/05/04 11:16:16;;;;;;;7.32;1.50;;;13.80;81.00;;;;;;5039952;28;20072;-80
2022/05/04 11:18:42;;;;;;;7.85;2.10;;;13.90;79.70;;;;;;5047947;28;20500;-78
2022/05/04 11:21:12;;;;;;;7.65;1.98;;;14.00;79.40;;;;;;5036748;28;20057;-79
2022/05/04 11:23:38;;;;;;;7.32;1.88;;;14.10;78.20;;;;;;5029181;28;20037;-84
2022/05/04 11:26:05;;;;;;;9.00;1.90;;;14.10;79.40;;;;;;5036806;28;20045;-82
2022/05/04 11:28:30;;;;;;;6.57;1.85;;;14.30;80.00;;;;;;5042585;28;20142;-81
2022/05/04 11:30:56;;;;;;;15.07;2.22;;;14.50;78.40;;;;;;5050178;28;20500;-77
2022/05/04 11:33:22;;;;;;;11.95;1.90;;;14.60;79.10;;;;;;5022575;28;20124;-80
2022/05/04 11:35:54;;;;;;;6.97;1.83;;;14.80;78.10;;;;;;5041455;28;20440;-79
2022/05/04 11:38:21;;;;;;;8.27;2.03;;;15.10;77.70;;;;;;5048831;28;20045;-82
2022/05/04 11:40:49;;;;;;;8.98;2.08;;;15.10;76.40;;;;;;5049798;28;20045;-81
2022/05/04 11:43:28;;;;;;;6.10;1.60;;;15.40;76.50;;;;;;5044328;28;20045;-81
2022/05/04 11:45:58;;;;;;;7.55;2.17;;;15.30;75.90;;;;;;5043959;28;20053;-81
2022/05/04 11:48:25;;;;;;;6.70;1.60;;;15.40;75.90;;;;;;5041662;28;20041;-82
2022/05/04 11:50:52;;;;;;;5.10;1.92;;;15.50;74.20;;;;;;5052808;28;20123;-79
2022/05/04 11:53:18;;;;;;;11.85;2.30;;;15.50;73.90;;;;;;5041043;28;20060;-80
2022/05/04 11:55:43;;;;;;;11.45;2.38;;;15.50;74.10;;;;;;5046935;28;20041;-79
2022/05/04 11:58:14;;;;;;;7.07;2.47;;;15.50;72.90;;;;;;5041400;28;20076;-80
2022/05/04 12:00:43;;;;;;;10.68;1.80;;;15.50;72.60;;;;;;5033563;28;20037;-80
2022/05/04 12:03:09;;;;;;;5.40;2.00;;;15.60;72.60;;;;;;5042423;28;20179;-80
2022/05/04 12:05:38;;;;;;;8.45;1.65;;;15.70;73.90;;;;;;5049178;28;20106;-80
2022/05/04 12:08:07;;;;;;;6.18;1.60;;;15.90;74.00;;;;;;5049145;28;20128;-79
2022/05/04 12:10:34;;;;;;;9.35;2.08;;;16.00;73.40;;;;;;5034060;28;20048;-80
2022/05/04 12:13:01;;;;;;;12.18;2.25;;;16.20;71.70;;;;;;5043943;28;20063;-81
2022/05/04 12:15:27;;;;;;;10.30;1.95;;;16.30;71.60;;;;;;5023116;28;20041;-81
2022/05/04 12:18:00;;;;;;;8.13;1.70;;;16.30;71.10;;;;;;5029941;28;20055;-81
2022/05/04 12:20:27;;;;;;;6.93;1.77;;;16.40;71.60;;;;;;5032299;28;20041;-82
2022/05/04 12:22:54;;;;;;;10.88;2.13;;;16.50;71.40;;;;;;5014429;28;20041;-80
2022/05/04 12:25:22;;;;;;;6.50;2.28;;;16.70;70.10;;;;;;5015871;28;20520;-81
2022/05/04 12:27:48;;;;;;;5.50;1.70;;;16.80;70.00;;;;;;5019258;28;20072;-82
2022/05/04 12:33:09;;;;;;;10.35;2.50;;;17.20;70.10;;;;;;5038570;28;20081;-81
2022/05/04 12:35:44;;;;;;;4.38;1.60;;;17.30;69.70;;;;;;5026928;28;20502;-81
2022/05/04 12:38:19;;;;;;;5.70;1.63;;;17.30;69.40;;;;;;5032682;28;20051;-82
2022/05/04 12:40:46;;;;;;;22.05;3.22;;;17.20;68.50;;;;;;5046853;28;20112;-82
2022/05/04 12:43:12;;;;;;;6.00;2.25;;;17.20;67.80;;;;;;5025719;28;20051;-81
2022/05/04 12:45:38;;;;;;;8.50;2.10;;;17.10;67.20;;;;;;5033378;28;20147;-83
2022/05/04 12:48:09;;;;;;;14.38;2.25;;;17.00;67.10;;;;;;5033084;28;20075;-83
2022/05/04 12:50:36;;;;;;;5.05;2.05;;;16.90;66.70;;;;;;5045693;28;20042;-82
2022/05/04 12:53:03;;;;;;;12.27;2.38;;;16.90;67.30;;;;;;5016441;28;20053;-83
2022/05/04 12:58:14;;;;;;;19.45;2.45;;;16.90;65.60;;;;;;5034755;28;20049;-82
2022/05/04 13:00:40;;;;;;;26.48;3.10;;;16.90;66.20;;;;;;5029582;28;20056;-82
2022/05/04 13:03:09;;;;;;;12.13;2.00;;;17.00;66.40;;;;;;5036421;28;20056;-81
2022/05/04 13:05:34;;;;;;;8.45;2.38;;;17.10;66.50;;;;;;5031953;28;20129;-81
2022/05/04 13:08:00;;;;;;;8.05;2.10;;;17.00;65.80;;;;;;5038899;28;20140;-84
2022/05/04 13:10:26;;;;;;;6.97;2.15;;;17.00;66.10;;;;;;5044517;28;20040;-82
2022/05/04 13:12:52;;;;;;;15.82;2.50;;;17.10;65.80;;;;;;5044498;28;20065;-83
2022/05/04 13:15:20;;;;;;;8.98;2.13;;;17.10;66.20;;;;;;5051206;28;20076;-83
2022/05/04 13:17:45;;;;;;;9.23;1.70;;;17.20;64.50;;;;;;5014161;28;20056;-82
2022/05/04 13:20:11;;;;;;;8.68;1.95;;;17.20;64.40;;;;;;5049547;28;20029;-83
2022/05/04 13:22:37;;;;;;;5.22;1.67;;;17.20;63.50;;;;;;5039845;28;20077;-81
2022/05/04 13:25:03;;;;;;;14.70;2.42;;;17.20;64.30;;;;;;5045541;28;20033;-80
2022/05/04 13:27:28;;;;;;;8.55;2.67;;;17.20;64.60;;;;;;5040982;28;20041;-81